Airfield :
LOGIN :

Register | Disclaimer

   EN    FR    IT 

 










Legend :    VFR   Marginal VFR   IFR   Intensive IFR   Very Intensive IFR
Visi :
Ceiling :
>= 8 km
>= 3000ft
5 to 8 km
1000 to 3000 ft
1500m to 5 km
500 to 1000 ft
800 to 1500m
200 to 500 ft
< 800m
< 200 ft
Symbols :   Thunderstorms  Fog  Heavy snow  Heavy precipitations  Wind > 20 kt
SIGMETs :     Misc.  Thunderstorms  Icing  Turbulence  Mountain Waves  Volcanic Ashes






- Airport Elevation : 465 ft
- IATA code : OMR


LROD - Oradea International

CURRENT METAR :
  • 162330Z AUTO 19003KT 9999 NCD 17/14 Q1013

EXPIRED METARs :
  • 162300Z AUTO 20004KT 9999 NCD 17/14 Q1012
  • 162230Z AUTO 22003KT 190V250 9999 NCD 18/14 Q1012
  • 162200Z AUTO 25005KT 9999 NCD 20/14 Q1012
  • 162130Z AUTO 26006KT 9999 NCD 21/14 Q1012
  • 162100Z AUTO 26007KT 9999 NCD 21/14 Q1012
  • 162030Z AUTO 25007KT 9999 FEW049/// 21/14 Q1012
  • 162000Z AUTO 24006KT 9999 NCD 21/15 Q1012
  • 161930Z AUTO 25006KT 9999 NCD 22/15 Q1011
  • 161900Z AUTO 25005KT 9999 NCD 23/15 Q1011

TAF TAF LROD
Valid from the 16 at 18:00 until the 17 at 03:00 UTC


161700Z 1618/1703 27012KT 9999 FEW050
BECMG 1619/1621 VRB04KT



MET'MAP, your aeronautical weather chart ! - Copyright ORBIFLY December 2007 - Disclaimer

ORBIFLY MET'MAP TEAM :

Programming & Development : Alexandra Zaïnal
Original concept : Baudouin d'Aumeries
Technical & hardware support : Manuel Goepfert
Assistance : Marc-Olivier Méhu




SOURCES & CREDITS :

   NOAA